Time;durP1;ratioP1;P1;durP2;ratioP2;P2;SDS_P1;SDS_P2;PMS_P1;PMS_P2;Temp;Humidity;BMP_temperature;BMP_pressure;BME280_temperature;BME280_humidity;BME280_pressure;Samples;Min_cycle;Max_cycle;Signal;HPM_P1;HPM_P2
2022/01/07 00:02:00;;;;;;;26.60;9.32;;;;;;;3.01;100.00;101155.91;4915511;28;20046;-73
2022/01/07 00:04:26;;;;;;;31.63;9.38;;;;;;;3.02;100.00;101162.91;4914389;28;20058;-74
2022/01/07 00:06:51;;;;;;;23.77;8.43;;;;;;;3.02;100.00;101151.41;4922035;28;20031;-74
2022/01/07 00:09:18;;;;;;;15.63;7.55;;;;;;;3.03;100.00;101151.28;4890489;28;20066;-74
2022/01/07 00:11:44;;;;;;;17.67;8.20;;;;;;;3.02;100.00;101136.31;4924110;28;20143;-74
2022/01/07 00:14:09;;;;;;;22.27;8.50;;;;;;;3.00;100.00;101142.75;4918930;28;20121;-74
2022/01/07 00:16:35;;;;;;;27.98;8.85;;;;;;;3.04;100.00;101139.63;4914196;28;20059;-74
2022/01/07 00:19:00;;;;;;;27.67;8.68;;;;;;;3.00;100.00;101132.94;4921920;28;20030;-74
2022/01/07 00:21:25;;;;;;;28.58;8.77;;;;;;;3.02;100.00;101125.66;4909736;28;20051;-74
2022/01/07 00:23:51;;;;;;;23.75;8.63;;;;;;;2.98;100.00;101129.59;4921809;28;20038;-75
2022/01/07 00:26:16;;;;;;;20.23;8.68;;;;;;;3.01;100.00;101129.28;4916492;28;20054;-74
2022/01/07 00:28:42;;;;;;;25.65;8.00;;;;;;;2.98;100.00;101137.56;4913593;28;20059;-75
2022/01/07 00:31:08;;;;;;;20.33;7.85;;;;;;;2.93;100.00;101125.75;4923494;28;20039;-74
2022/01/07 00:33:33;;;;;;;23.23;7.82;;;;;;;2.92;100.00;101124.91;4905750;28;20059;-74
2022/01/07 00:35:59;;;;;;;20.40;7.55;;;;;;;2.93;100.00;101126.59;4925038;28;20073;-75
2022/01/07 00:38:25;;;;;;;25.88;8.85;;;;;;;2.91;100.00;101128.56;4907838;28;20486;-74
2022/01/07 00:40:50;;;;;;;25.33;8.77;;;;;;;2.93;100.00;101125.75;4922623;28;20047;-74
2022/01/07 00:43:16;;;;;;;23.30;8.55;;;;;;;2.89;100.00;101119.06;4924546;28;20049;-74
2022/01/07 00:45:41;;;;;;;19.67;7.47;;;;;;;2.83;100.00;101123.19;4909326;28;20082;-74
2022/01/07 00:48:07;;;;;;;26.27;8.70;;;;;;;2.72;100.00;101107.47;4926475;28;20069;-74
2022/01/07 00:50:33;;;;;;;20.73;7.38;;;;;;;2.71;100.00;101104.00;4909084;28;20517;-74
2022/01/07 00:52:59;;;;;;;28.33;8.98;;;;;;;2.67;100.00;101107.09;4940123;28;20335;-74
2022/01/07 00:55:26;;;;;;;24.95;8.20;;;;;;;2.63;100.00;101110.09;4922306;28;20097;-75
2022/01/07 00:57:51;;;;;;;24.13;7.78;;;;;;;2.58;100.00;101112.34;4907489;28;20145;-74
2022/01/07 01:00:19;;;;;;;19.60;7.75;;;;;;;2.54;100.00;101103.03;4924429;28;20318;-75
2022/01/07 01:02:45;;;;;;;21.95;7.20;;;;;;;2.44;100.00;101091.63;4911531;28;20049;-75
2022/01/07 01:05:12;;;;;;;24.00;8.88;;;;;;;2.45;100.00;101095.97;4926335;28;20746;-75
2022/01/07 01:07:38;;;;;;;23.88;8.38;;;;;;;2.38;100.00;101097.56;4927879;28;20049;-75
2022/01/07 01:10:07;;;;;;;24.42;8.38;;;;;;;2.35;100.00;101080.13;4911981;28;20043;-75
2022/01/07 01:12:38;;;;;;;23.92;8.95;;;;;;;2.32;100.00;101084.91;4925606;28;20038;-75
2022/01/07 01:15:05;;;;;;;23.10;9.27;;;;;;;2.26;100.00;101086.34;4909001;28;20051;-75
2022/01/07 01:17:31;;;;;;;29.25;9.95;;;;;;;2.24;100.00;101082.16;4926842;28;20399;-75
2022/01/07 01:19:57;;;;;;;21.38;8.35;;;;;;;2.19;100.00;101087.09;4924693;28;20047;-75
2022/01/07 01:22:22;;;;;;;23.73;9.48;;;;;;;2.17;100.00;101075.78;4915196;28;20055;-75
2022/01/07 01:24:48;;;;;;;25.98;8.70;;;;;;;2.11;100.00;101072.75;4880718;28;20046;-75
2022/01/07 01:27:13;;;;;;;23.20;9.38;;;;;;;2.12;100.00;101074.41;4894822;28;20055;-75
2022/01/07 01:29:38;;;;;;;26.25;10.18;;;;;;;2.13;100.00;101065.44;4928690;28;20039;-75
2022/01/07 01:32:05;;;;;;;24.95;9.02;;;;;;;2.08;100.00;101058.94;4924468;28;20038;-75
2022/01/07 01:34:30;;;;;;;19.83;8.40;;;;;;;2.05;100.00;101060.06;4917390;28;20054;-75
2022/01/07 01:36:56;;;;;;;20.67;8.38;;;;;;;2.03;100.00;101054.06;4929609;28;20133;-75
2022/01/07 01:39:22;;;;;;;29.45;10.50;;;;;;;2.07;100.00;101051.94;4912106;28;20921;-75
2022/01/07 01:41:48;;;;;;;23.80;8.50;;;;;;;2.01;100.00;101040.09;4926783;28;20884;-75
2022/01/07 01:44:14;;;;;;;23.60;9.60;;;;;;;2.05;100.00;101036.16;4919347;28;20035;-75
2022/01/07 01:46:39;;;;;;;20.38;10.07;;;;;;;2.02;100.00;101023.16;4916571;28;20982;-74
2022/01/07 01:49:05;;;;;;;25.25;9.88;;;;;;;2.00;100.00;101017.19;4911872;28;20063;-76
2022/01/07 01:51:31;;;;;;;29.00;9.88;;;;;;;1.97;100.00;101012.19;4912966;28;20576;-75
2022/01/07 01:53:57;;;;;;;23.77;8.82;;;;;;;1.95;100.00;101014.13;4926818;28;20400;-75
2022/01/07 01:56:22;;;;;;;26.63;9.57;;;;;;;1.94;100.00;101001.84;4921148;28;20630;-75
2022/01/07 01:58:48;;;;;;;24.48;9.35;;;;;;;1.90;100.00;101011.13;4901136;28;24123;-74
2022/01/07 02:01:14;;;;;;;24.67;10.32;;;;;;;1.89;100.00;101002.28;4928304;28;20027;-74
2022/01/07 02:03:40;;;;;;;24.95;9.50;;;;;;;1.85;100.00;100997.44;4912340;28;20051;-75
2022/01/07 02:06:05;;;;;;;23.20;9.07;;;;;;;1.82;100.00;100985.28;4927644;28;20145;-74
2022/01/07 02:08:31;;;;;;;28.20;11.13;;;;;;;1.80;100.00;100983.78;4921036;28;20512;-74
2022/01/07 02:10:59;;;;;;;30.02;10.32;;;;;;;1.76;100.00;100980.59;4916731;28;20086;-74
2022/01/07 02:13:25;;;;;;;24.35;10.18;;;;;;;1.77;100.00;100982.28;4923648;28;20061;-74
2022/01/07 02:15:50;;;;;;;29.40;11.60;;;;;;;1.76;100.00;100990.41;4911839;28;20772;-74
2022/01/07 02:18:19;;;;;;;29.75;12.10;;;;;;;1.74;100.00;100979.91;4926540;28;20042;-73
2022/01/07 02:20:44;;;;;;;27.95;11.13;;;;;;;1.70;100.00;100973.25;4901031;28;20063;-74
2022/01/07 02:23:10;;;;;;;25.73;12.52;;;;;;;1.72;100.00;100962.47;4918313;28;20154;-74
2022/01/07 02:25:35;;;;;;;35.15;12.93;;;;;;;1.73;100.00;100972.13;4927048;28;20475;-74
2022/01/07 02:28:01;;;;;;;25.33;11.32;;;;;;;1.67;100.00;100947.81;4910043;28;20110;-74
2022/01/07 02:30:29;;;;;;;24.67;12.45;;;;;;;1.68;100.00;100961.94;4939809;28;20101;-74
2022/01/07 02:32:55;;;;;;;27.13;12.27;;;;;;;1.64;100.00;100960.56;4919483;28;20054;-74
2022/01/07 02:35:26;;;;;;;30.40;12.60;;;;;;;1.62;100.00;100963.38;4917069;28;20050;-74
2022/01/07 02:37:52;;;;;;;32.22;13.23;;;;;;;1.61;100.00;100951.06;4927581;28;20042;-74
2022/01/07 02:40:17;;;;;;;23.92;12.82;;;;;;;1.58;100.00;100948.75;4910744;28;20059;-74
2022/01/07 02:42:43;;;;;;;31.75;13.25;;;;;;;1.58;100.00;100948.75;4926438;28;20050;-74
2022/01/07 02:45:09;;;;;;;24.90;13.07;;;;;;;1.55;100.00;100957.00;4911361;28;20046;-75
2022/01/07 02:47:49;;;;;;;31.50;13.70;;;;;;;1.51;100.00;100950.34;4910836;28;20126;-75
2022/01/07 02:50:15;;;;;;;32.72;13.15;;;;;;;1.47;100.00;100946.28;4913022;28;20038;-74
2022/01/07 02:52:41;;;;;;;32.38;14.52;;;;;;;1.52;100.00;100952.00;4910882;28;20162;-75
2022/01/07 02:55:07;;;;;;;25.50;13.82;;;;;;;1.52;100.00;100936.06;4925867;28;20485;-74
2022/01/07 02:57:32;;;;;;;24.08;14.57;;;;;;;1.53;100.00;100936.91;4908495;28;20134;-74
2022/01/07 02:59:58;;;;;;;22.35;13.55;;;;;;;1.49;100.00;100931.06;4925236;28;20031;-74
2022/01/07 03:02:23;;;;;;;31.40;14.50;;;;;;;1.50;100.00;100924.75;4924851;28;23545;-74
2022/01/07 03:04:48;;;;;;;27.58;13.82;;;;;;;1.50;100.00;100924.75;4908121;28;20050;-75
2022/01/07 03:07:14;;;;;;;29.02;14.65;;;;;;;1.51;100.00;100925.59;4925191;28;20026;-74
2022/01/07 03:09:40;;;;;;;32.28;15.68;;;;;;;1.51;100.00;100917.63;4912306;28;22650;-74
2022/01/07 03:12:06;;;;;;;26.20;14.23;;;;;;;1.55;100.00;100906.56;4926530;28;20161;-75
2022/01/07 03:14:31;;;;;;;25.95;14.60;;;;;;;1.50;100.00;100903.53;4927017;28;20039;-74
2022/01/07 03:16:57;;;;;;;31.92;15.88;;;;;;;1.56;100.00;100910.88;4911175;28;20062;-74
2022/01/07 03:19:22;;;;;;;33.30;16.58;;;;;;;1.54;100.00;100899.56;4922633;28;20058;-74
2022/01/07 03:21:47;;;;;;;29.05;14.65;;;;;;;1.60;100.00;100898.13;4909357;28;20162;-75
2022/01/07 03:24:13;;;;;;;31.98;17.23;;;;;;;1.60;100.00;100898.97;4924276;28;20046;-75
2022/01/07 03:26:39;;;;;;;26.67;15.52;;;;;;;1.60;100.00;100904.28;4921249;28;21401;-74
2022/01/07 03:29:04;;;;;;;28.45;16.27;;;;;;;1.59;100.00;100897.31;4913053;28;20050;-75
2022/01/07 03:31:30;;;;;;;26.17;15.38;;;;;;;1.61;100.00;100892.66;4926657;28;20077;-75
2022/01/07 03:33:55;;;;;;;30.00;16.05;;;;;;;1.63;100.00;100882.72;4912828;28;20141;-75
2022/01/07 03:36:20;;;;;;;29.10;16.52;;;;;;;1.65;100.00;100880.78;4925100;28;20035;-75
2022/01/07 03:38:46;;;;;;;31.30;15.88;;;;;;;1.66;100.00;100871.81;4921831;28;20047;-74
2022/01/07 03:41:11;;;;;;;31.73;17.60;;;;;;;1.67;100.00;100872.63;4913597;28;20055;-74
2022/01/07 03:43:37;;;;;;;30.63;17.42;;;;;;;1.70;100.00;100876.81;4923836;28;20082;-75
2022/01/07 03:46:02;;;;;;;24.08;15.68;;;;;;;1.71;100.00;100873.16;4925604;28;20109;-75
2022/01/07 03:48:28;;;;;;;28.30;17.67;;;;;;;1.73;100.00;100865.88;4924907;28;20039;-75
2022/01/07 03:50:53;;;;;;;27.30;16.38;;;;;;;1.74;100.00;100862.22;4903433;28;20042;-76
2022/01/07 03:53:19;;;;;;;33.60;16.45;;;;;;;1.75;100.00;100866.53;4914085;28;20136;-75
2022/01/07 03:55:44;;;;;;;25.67;16.17;;;;;;;1.79;100.00;100857.28;4925791;28;20045;-75
2022/01/07 03:58:10;;;;;;;24.38;16.45;;;;;;;1.79;100.00;100854.63;4912723;28;20051;-73
2022/01/07 04:00:38;;;;;;;23.33;16.45;;;;;;;1.80;100.00;100851.00;4925759;28;20491;-74
2022/01/07 04:03:11;;;;;;;23.95;16.75;;;;;;;1.82;100.00;100843.69;4918459;28;20034;-74
2022/01/07 04:05:36;;;;;;;28.17;17.50;;;;;;;1.83;100.00;100837.41;4916433;28;20042;-75
2022/01/07 04:08:04;;;;;;;26.45;17.50;;;;;;;1.87;100.00;100836.94;4925028;28;20034;-75
2022/01/07 04:10:29;;;;;;;24.20;17.58;;;;;;;1.90;100.00;100835.78;4896205;28;20066;-74
2022/01/07 04:12:55;;;;;;;26.92;17.50;;;;;;;1.88;100.00;100833.28;4941674;28;20122;-74
2022/01/07 04:15:21;;;;;;;29.70;17.83;;;;;;;1.91;100.00;100813.53;4919514;28;20047;-76
2022/01/07 04:17:50;;;;;;;28.42;18.63;;;;;;;1.96;100.00;100824.50;4915534;28;20249;-75
2022/01/07 04:20:17;;;;;;;26.45;17.48;;;;;;;1.95;100.00;100822.03;4925164;28;20038;-74
2022/01/07 04:22:43;;;;;;;28.42;17.80;;;;;;;1.96;100.00;100813.88;4911288;28;20054;-72
2022/01/07 04:25:17;;;;;;;28.60;17.33;;;;;;;1.92;100.00;100813.38;4908583;28;20767;-72
2022/01/07 04:28:19;;;;;;;27.55;17.98;;;;;;;1.92;100.00;100817.84;4918274;28;20129;-72
2022/01/07 04:30:45;;;;;;;28.65;16.67;;;;;;;1.98;100.00;100822.53;4925731;28;20487;-72
2022/01/07 04:33:14;;;;;;;21.67;15.88;;;;;;;1.99;100.00;100818.88;4923177;28;20065;-72
2022/01/07 04:35:41;;;;;;;20.05;15.00;;;;;;;2.00;100.00;100815.25;4925483;28;20575;-72
2022/01/07 04:38:08;;;;;;;26.77;16.48;;;;;;;2.01;100.00;100798.31;4925465;28;20121;-75
2022/01/07 04:40:34;;;;;;;24.40;16.17;;;;;;;1.99;100.00;100799.47;4908540;28;20075;-72
2022/01/07 04:43:01;;;;;;;27.48;17.42;;;;;;;2.01;100.00;100794.84;4906533;28;20042;-72
2022/01/07 04:45:26;;;;;;;24.55;16.73;;;;;;;1.99;100.00;100802.13;4915215;28;20065;-72
2022/01/07 04:47:52;;;;;;;21.48;15.50;;;;;;;2.02;100.00;100791.19;4916599;28;21002;-72
2022/01/07 04:50:19;;;;;;;25.38;16.15;;;;;;;2.04;100.00;100799.84;4922913;28;20042;-72
2022/01/07 04:52:45;;;;;;;25.95;16.40;;;;;;;2.06;100.00;100798.66;4906111;28;20061;-72
2022/01/07 04:55:16;;;;;;;24.58;16.77;;;;;;;2.08;100.00;100796.69;4921348;28;20031;-72
2022/01/07 04:57:43;;;;;;;23.80;15.13;;;;;;;2.11;100.00;100791.06;4917315;28;23804;-73
2022/01/07 05:00:09;;;;;;;24.98;15.52;;;;;;;2.13;100.00;100797.03;4914797;28;20065;-72
2022/01/07 05:02:34;;;;;;;25.10;15.05;;;;;;;2.11;100.00;100790.25;4924023;28;20035;-73
2022/01/07 05:05:00;;;;;;;24.90;15.00;;;;;;;2.20;100.00;100783.13;4911469;28;20647;-72
2022/01/07 05:07:25;;;;;;;25.83;15.30;;;;;;;2.20;100.00;100788.44;4925540;28;20034;-72
2022/01/07 05:09:51;;;;;;;26.08;16.33;;;;;;;2.21;100.00;100785.63;4919257;28;20042;-72
2022/01/07 05:12:16;;;;;;;19.35;15.18;;;;;;;2.18;100.00;100775.31;4915106;28;20085;-74
2022/01/07 05:14:42;;;;;;;27.50;14.80;;;;;;;2.22;100.00;100778.50;4923699;28;20542;-74
2022/01/07 05:17:07;;;;;;;24.60;15.40;;;;;;;2.26;100.00;100782.50;4905510;28;20053;-73
2022/01/07 05:19:32;;;;;;;26.13;15.43;;;;;;;2.26;100.00;100766.53;4925201;28;20031;-73
2022/01/07 05:21:58;;;;;;;21.70;14.55;;;;;;;2.25;100.00;100767.53;4918841;28;20047;-72
2022/01/07 05:24:23;;;;;;;22.70;14.98;;;;;;;2.23;100.00;100761.53;4930757;28;20078;-73
2022/01/07 05:26:49;;;;;;;24.58;15.27;;;;;;;2.27;100.00;100752.25;4922743;28;20159;-73
2022/01/07 05:29:15;;;;;;;20.55;14.02;;;;;;;2.30;100.00;100767.88;4905957;28;20047;-73
2022/01/07 05:31:40;;;;;;;21.08;14.80;;;;;;;2.30;100.00;100758.06;4922457;28;20042;-72
2022/01/07 05:34:06;;;;;;;24.13;14.23;;;;;;;2.34;100.00;100754.09;4910532;28;20076;-72
2022/01/07 05:36:31;;;;;;;25.13;14.52;;;;;;;2.32;100.00;100756.09;4921866;28;20085;-72
2022/01/07 05:38:57;;;;;;;22.80;14.13;;;;;;;2.31;100.00;100759.72;4923216;28;20747;-73
2022/01/07 05:41:22;;;;;;;19.02;13.38;;;;;;;2.36;100.00;100756.63;4893413;28;20407;-73
2022/01/07 05:43:49;;;;;;;21.27;14.40;;;;;;;2.37;100.00;100761.75;4922098;28;20074;-73
2022/01/07 05:46:16;;;;;;;20.65;14.65;;;;;;;2.35;100.00;100754.94;4908055;28;22608;-73
2022/01/07 05:48:46;;;;;;;21.17;13.23;;;;;;;2.37;100.00;100750.28;4926044;28;20026;-73
2022/01/07 05:51:12;;;;;;;21.52;13.57;;;;;;;2.38;100.00;100751.94;4926480;28;20035;-72
2022/01/07 05:53:38;;;;;;;21.13;14.38;;;;;;;2.38;100.00;100749.28;4911572;28;20133;-72
2022/01/07 05:56:04;;;;;;;16.92;13.45;;;;;;;2.42;100.00;100745.31;4926736;28;20090;-72
2022/01/07 05:58:30;;;;;;;18.25;12.90;;;;;;;2.46;100.00;100751.13;4910781;28;20484;-72
2022/01/07 06:00:55;;;;;;;21.50;14.40;;;;;;;2.44;100.00;100746.00;4928083;28;20039;-72
2022/01/07 06:03:20;;;;;;;17.83;11.77;;;;;;;2.45;100.00;100736.19;4925535;28;20118;-72
2022/01/07 06:05:46;;;;;;;17.77;12.55;;;;;;;2.46;100.00;100744.00;4913768;28;20050;-72
2022/01/07 06:08:11;;;;;;;18.75;13.02;;;;;;;2.49;100.00;100754.34;4928970;28;20031;-72
2022/01/07 06:10:37;;;;;;;21.52;13.07;;;;;;;2.45;100.00;100739.66;4912717;28;22735;-73
2022/01/07 06:13:02;;;;;;;21.77;12.80;;;;;;;2.41;100.00;100727.69;4926117;28;20034;-73
2022/01/07 06:15:28;;;;;;;19.77;12.43;;;;;;;2.49;100.00;100741.03;4910633;28;20035;-73
2022/01/07 06:17:53;;;;;;;19.60;13.13;;;;;;;2.51;100.00;100739.03;4912044;28;21733;-71
2022/01/07 06:20:19;;;;;;;16.80;12.88;;;;;;;2.56;100.00;100733.22;4927093;28;20050;-72
2022/01/07 06:22:45;;;;;;;22.55;13.52;;;;;;;2.55;100.00;100736.88;4911377;28;20065;-72
2022/01/07 06:25:11;;;;;;;18.25;13.65;;;;;;;2.50;100.00;100737.38;4927401;28;20031;-71
2022/01/07 06:27:38;;;;;;;21.73;13.10;;;;;;;2.49;100.00;100749.00;4927655;28;20043;-73
2022/01/07 06:30:04;;;;;;;18.70;13.23;;;;;;;2.48;100.00;100739.34;4907836;28;20079;-73
2022/01/07 06:32:30;;;;;;;25.17;13.98;;;;;;;2.52;100.00;100751.31;4927226;28;20049;-73
2022/01/07 06:34:55;;;;;;;22.50;13.70;;;;;;;2.55;100.00;100750.16;4927123;28;20051;-73
2022/01/07 06:37:21;;;;;;;22.25;13.80;;;;;;;2.58;100.00;100740.03;4928249;28;20035;-73
2022/01/07 06:39:46;;;;;;;17.25;12.73;;;;;;;2.63;100.00;100740.41;4925981;28;20042;-73
2022/01/07 06:42:13;;;;;;;20.65;14.00;;;;;;;2.54;100.00;100740.53;4913036;28;20101;-73
2022/01/07 06:44:38;;;;;;;18.20;13.55;;;;;;;2.50;100.00;100734.72;4925550;28;20142;-73
2022/01/07 06:47:04;;;;;;;21.20;13.93;;;;;;;2.50;100.00;100737.38;4910437;28;20541;-71
2022/01/07 06:49:30;;;;;;;19.27;14.18;;;;;;;2.47;100.00;100742.19;4927132;28;20153;-71
2022/01/07 06:51:55;;;;;;;19.88;14.20;;;;;;;2.48;100.00;100744.66;4923461;28;20035;-72
2022/01/07 06:54:21;;;;;;;19.10;14.45;;;;;;;2.45;100.00;100734.34;4909951;28;22426;-73
2022/01/07 06:56:46;;;;;;;20.25;14.05;;;;;;;2.49;100.00;100735.72;4926551;28;21603;-71
2022/01/07 06:59:12;;;;;;;18.42;13.75;;;;;;;2.52;100.00;100735.38;4909736;28;20165;-71
2022/01/07 07:01:41;;;;;;;19.90;14.18;;;;;;;2.51;100.00;100736.38;4922192;28;20160;-72
2022/01/07 07:04:07;;;;;;;25.58;14.55;;;;;;;2.52;100.00;100730.03;4917335;28;20117;-72
2022/01/07 07:06:34;;;;;;;20.20;14.88;;;;;;;2.53;100.00;100723.75;4915200;28;20763;-72
2022/01/07 07:09:00;;;;;;;22.33;15.65;;;;;;;2.59;100.00;100735.56;4923661;28;20027;-72
2022/01/07 07:11:26;;;;;;;24.00;15.20;;;;;;;2.58;100.00;100725.91;4908282;28;20066;-72
2022/01/07 07:13:51;;;;;;;20.05;14.15;;;;;;;2.56;100.00;100720.78;4920867;28;20049;-72
2022/01/07 07:16:16;;;;;;;18.20;14.98;;;;;;;2.64;100.00;100733.25;4903274;28;20047;-72
2022/01/07 07:18:42;;;;;;;20.80;14.98;;;;;;;2.66;100.00;100735.72;4916558;28;20753;-72
2022/01/07 07:21:07;;;;;;;20.33;15.05;;;;;;;2.65;100.00;100726.09;4925716;28;22215;-73
2022/01/07 07:23:33;;;;;;;25.02;15.45;;;;;;;2.70;100.00;100729.91;4895802;28;20910;-72
2022/01/07 07:25:58;;;;;;;23.15;15.35;;;;;;;2.70;100.00;100732.56;4925492;28;23884;-73
2022/01/07 07:28:24;;;;;;;21.33;15.70;;;;;;;2.75;100.00;100734.75;4917785;28;20045;-73
2022/01/07 07:30:51;;;;;;;24.13;15.52;;;;;;;2.77;100.00;100741.59;4915686;28;20130;-73
2022/01/07 07:38:33;;;;;;;23.00;15.43;;;;;;;2.87;100.00;100741.41;4925493;28;20212;-73
2022/01/07 07:40:59;;;;;;;24.67;15.65;;;;;;;2.85;100.00;100743.41;4907623;28;20071;-73
2022/01/07 07:43:24;;;;;;;30.05;16.48;;;;;;;2.87;100.00;100742.22;4923707;28;20162;-73
2022/01/07 07:45:50;;;;;;;23.73;15.93;;;;;;;2.95;100.00;100733.44;4924096;28;20111;-72
2022/01/07 07:48:15;;;;;;;19.55;15.57;;;;;;;2.97;100.00;100733.28;4909168;28;20051;-73
2022/01/07 07:50:40;;;;;;;21.98;15.82;;;;;;;3.01;100.00;100743.41;4907162;28;20055;-73
2022/01/07 07:53:06;;;;;;;28.17;17.95;;;;;;;3.04;100.00;100755.56;4911317;28;20047;-73
2022/01/07 07:55:32;;;;;;;26.60;17.52;;;;;;;3.01;100.00;100743.41;4939624;28;20104;-73
2022/01/07 07:57:57;;;;;;;25.25;16.65;;;;;;;3.06;100.00;100746.41;4922741;28;20043;-73
2022/01/07 08:00:23;;;;;;;22.85;16.08;;;;;;;3.05;100.00;100741.25;4903046;28;20055;-73
2022/01/07 08:02:48;;;;;;;25.00;17.65;;;;;;;3.06;100.00;100748.25;4922334;28;20037;-73
2022/01/07 08:05:13;;;;;;;24.38;17.70;;;;;;;3.05;100.00;100730.59;4906192;28;20038;-73
2022/01/07 08:07:39;;;;;;;25.02;17.25;;;;;;;3.07;100.00;100729.44;4922330;28;20051;-73
2022/01/07 08:10:05;;;;;;;27.38;17.63;;;;;;;3.06;100.00;100749.06;4920803;28;20030;-73
2022/01/07 08:12:52;;;;;;;28.13;17.52;;;;;;;3.06;100.00;100733.09;4905540;28;20141;-73
2022/01/07 08:18:00;;;;;;;30.20;19.35;;;;;;;3.13;100.00;100745.75;4905590;28;20062;-73
2022/01/07 08:20:26;;;;;;;26.42;18.45;;;;;;;3.11;100.00;100740.59;4923121;28;20070;-72
2022/01/07 08:22:51;;;;;;;36.15;19.70;;;;;;;3.17;100.00;100737.25;4916176;28;20066;-73
2022/01/07 08:25:16;;;;;;;29.27;20.45;;;;;;;3.24;100.00;100740.09;4926551;28;20158;-72
2022/01/07 08:27:42;;;;;;;28.48;19.55;;;;;;;3.27;100.00;100739.75;4921937;28;20064;-72
2022/01/07 08:30:15;;;;;;;27.40;20.10;;;;;;;3.29;100.00;100740.41;4907196;28;21173;-73
2022/01/07 08:35:27;;;;;;;28.98;20.73;;;;;;;3.42;100.00;100732.75;4907654;28;20078;-73
2022/01/07 08:37:53;;;;;;;32.70;20.25;;;;;;;3.43;100.00;100734.41;4922651;28;21172;-73
2022/01/07 08:40:18;;;;;;;34.10;21.50;;;;;;;3.43;100.00;100731.72;4921854;28;20054;-73
2022/01/07 08:42:44;;;;;;;38.35;22.08;;;;;;;3.41;100.00;100748.91;4909678;28;21459;-73
2022/01/07 08:45:09;;;;;;;33.70;22.83;;;;;;;3.49;100.00;100748.88;4938671;28;20831;-73
2022/01/07 08:47:35;;;;;;;34.13;22.42;;;;;;;3.55;100.00;100743.72;4889223;28;20078;-73
2022/01/07 08:50:00;;;;;;;40.95;23.17;;;;;;;3.58;100.00;100748.72;4923433;28;21689;-73
2022/01/07 08:52:26;;;;;;;39.60;23.13;;;;;;;3.59;100.00;100739.72;4924798;28;20535;-73
2022/01/07 08:54:51;;;;;;;33.72;23.38;;;;;;;3.73;100.00;100745.34;4910013;28;20055;-73
2022/01/07 08:57:19;;;;;;;37.70;24.15;;;;;;;3.75;100.00;100744.16;4924331;28;20050;-73
2022/01/07 08:59:44;;;;;;;46.20;24.85;;;;;;;3.78;100.00;100733.16;4910386;28;20146;-73
2022/01/07 09:02:10;;;;;;;38.42;25.55;;;;;;;3.84;100.00;100742.31;4923264;28;20035;-73
2022/01/07 09:04:35;;;;;;;43.13;24.45;;;;;;;3.98;100.00;100743.44;4925404;28;20045;-72
2022/01/07 09:07:00;;;;;;;36.03;23.92;;;;;;;4.20;100.00;100741.84;4912042;28;20153;-72
2022/01/07 09:09:26;;;;;;;36.45;23.85;;;;;;;4.25;100.00;100734.16;4925099;28;20069;-72
2022/01/07 09:11:52;;;;;;;42.45;23.35;;;;;;;4.29;100.00;100740.81;4909924;28;20102;-72
2022/01/07 09:14:18;;;;;;;36.72;22.88;;;;;;;4.33;100.00;100736.78;4922329;28;20736;-72
2022/01/07 09:16:43;;;;;;;44.33;23.85;;;;;;;4.36;100.00;100741.75;4923861;28;20038;-73
2022/01/07 09:19:08;;;;;;;36.45;23.92;;;;;;;4.34;100.00;100730.44;4905739;28;20047;-72
2022/01/07 09:21:34;;;;;;;41.13;24.13;;;;;;;4.37;100.00;100742.59;4924336;28;20063;-74
2022/01/07 09:23:59;;;;;;;35.90;24.52;;;;;;;4.40;100.00;100743.06;4913033;28;20729;-73
2022/01/07 09:26:25;;;;;;;38.28;24.70;;;;;;;4.39;100.00;100735.22;4928741;28;20066;-73
2022/01/07 09:28:50;;;;;;;35.08;23.90;;;;;;;4.45;100.00;100734.53;4927144;28;20031;-73
2022/01/07 09:31:17;;;;;;;38.17;24.20;;;;;;;4.47;100.00;100732.53;4911552;28;20054;-74
2022/01/07 09:33:43;;;;;;;38.55;23.63;;;;;;;4.47;100.00;100730.69;4942431;28;20042;-73
2022/01/07 09:36:08;;;;;;;37.65;23.90;;;;;;;4.39;100.00;100730.75;4908659;28;20062;-73
2022/01/07 09:38:33;;;;;;;39.45;22.70;;;;;;;4.37;100.00;100732.75;4928213;28;20053;-71
2022/01/07 09:40:59;;;;;;;38.53;24.10;;;;;;;4.47;100.00;100744.03;4926799;28;20046;-73
2022/01/07 09:43:25;;;;;;;38.20;24.60;;;;;;;4.51;100.00;100739.19;4913583;28;20084;-73
2022/01/07 09:45:51;;;;;;;34.45;22.05;;;;;;;4.52;100.00;100738.16;4927530;28;20041;-72
2022/01/07 09:48:16;;;;;;;41.13;23.63;;;;;;;4.50;100.00;100737.53;4912098;28;20510;-71
2022/01/07 09:50:42;;;;;;;38.63;22.60;;;;;;;4.46;100.00;100731.72;4925421;28;20468;-72
2022/01/07 09:53:10;;;;;;;31.25;22.52;;;;;;;4.61;100.00;100737.13;4922044;28;20045;-73
2022/01/07 09:55:36;;;;;;;35.05;22.33;;;;;;;4.70;100.00;100727.19;4916674;28;20060;-72
2022/01/07 09:58:02;;;;;;;36.60;22.77;;;;;;;4.89;100.00;100737.41;4925626;28;20406;-72
2022/01/07 10:00:39;;;;;;;36.42;21.33;;;;;;;5.35;100.00;100725.84;4880194;28;20493;-72
2022/01/07 10:03:10;;;;;;;33.92;19.63;;;;;;;5.56;100.00;100738.50;4926995;28;20098;-72
2022/01/07 10:05:52;;;;;;;36.50;18.05;;;;;;;5.44;100.00;100730.94;4919272;28;20043;-72
2022/01/07 10:08:20;;;;;;;28.55;18.23;;;;;;;5.32;100.00;100734.22;4930711;28;20520;-72
2022/01/07 10:10:46;;;;;;;28.92;17.10;;;;;;;5.11;100.00;100740.25;4926384;28;20969;-72
2022/01/07 10:13:11;;;;;;;27.85;15.65;;;;;;;4.87;100.00;100750.09;4911756;28;20062;-72
2022/01/07 10:15:38;;;;;;;21.27;14.18;;;;;;;4.66;100.00;100742.75;4928156;28;20038;-74
2022/01/07 10:18:06;;;;;;;16.83;11.00;;;;;;;4.52;100.00;100747.00;4912881;28;22635;-74
2022/01/07 10:20:55;;;;;;;19.60;9.43;;;;;;;4.32;100.00;100735.13;4925443;28;20026;-72
2022/01/07 10:23:24;;;;;;;10.45;6.80;;;;;;;4.17;100.00;100726.19;4924143;28;20117;-73
2022/01/07 10:25:54;;;;;;;13.20;4.80;;;;;;;3.99;100.00;100697.94;4917052;28;20059;-73
2022/01/07 10:28:27;;;;;;;7.80;3.47;;;;;;;3.90;100.00;100693.66;4926881;28;20045;-73
2022/01/07 10:30:54;;;;;;;8.68;4.57;;;;;;;3.80;100.00;100707.19;4908563;28;20056;-72
2022/01/07 10:33:25;;;;;;;19.13;6.75;;;;;;;3.83;100.00;100708.69;4928299;28;20405;-72
2022/01/07 10:35:54;;;;;;;14.80;9.10;;;;;;;3.92;100.00;100718.28;4916032;28;22618;-72
2022/01/07 10:38:22;;;;;;;15.65;10.43;;;;;;;3.98;100.00;100706.94;4917722;28;20061;-72
2022/01/07 10:40:49;;;;;;;20.13;11.82;;;;;;;4.13;100.00;100711.53;4930135;28;20066;-72
2022/01/07 10:43:32;;;;;;;17.17;11.13;;;;;;;4.40;100.00;100704.91;4910130;28;20043;-72
2022/01/07 10:46:05;;;;;;;17.05;10.38;;;;;;;5.03;100.00;100699.25;4926509;28;20045;-72
2022/01/07 10:48:53;;;;;;;12.10;9.20;;;;;;;5.92;100.00;100695.84;4927495;28;21482;-71
2022/01/07 10:51:43;;;;;;;13.23;7.60;;;;;;;6.09;100.00;100691.16;4925838;28;20159;-71
2022/01/07 10:54:10;;;;;;;9.15;5.63;;;;;;;6.31;100.00;100692.84;4904866;28;20062;-71
2022/01/07 10:56:40;;;;;;;6.35;4.50;;;;;;;6.48;100.00;100700.66;4914991;28;20133;-71
2022/01/07 10:59:10;;;;;;;7.97;3.03;;;;;;;6.86;100.00;100704.75;4926046;28;20053;-73
2022/01/07 11:01:36;;;;;;;7.53;2.25;;;;;;;7.41;100.00;100703.13;4910760;28;20173;-72
2022/01/07 11:04:04;;;;;;;6.18;2.00;;;;;;;7.74;100.00;100688.28;4926007;28;20027;-72
2022/01/07 11:06:30;;;;;;;4.03;1.70;;;;;;;7.52;100.00;100709.81;4911347;28;20069;-72
2022/01/07 11:08:57;;;;;;;5.32;1.75;;;;;;;6.77;100.00;100707.72;4926978;28;20049;-72
2022/01/07 11:11:24;;;;;;;5.05;2.10;;;;;;;6.11;100.00;100703.31;4925466;28;20031;-72
2022/01/07 11:13:50;;;;;;;7.45;2.83;;;;;;;5.82;100.00;100695.28;4909120;28;20063;-72
2022/01/07 11:16:16;;;;;;;7.15;3.13;;;;;;;5.47;100.00;100695.81;4921803;28;20051;-72
2022/01/07 11:18:43;;;;;;;8.07;3.67;;;;;;;5.19;100.00;100694.78;4908811;28;20050;-72
2022/01/07 11:21:10;;;;;;;6.63;3.55;;;;;;;5.18;100.00;100687.78;4923402;28;20054;-72